Time;durP1;ratioP1;P1;durP2;ratioP2;P2;SDS_P1;SDS_P2;PMS_P1;PMS_P2;Temp;Humidity;BMP_temperature;BMP_pressure;BME280_temperature;BME280_humidity;BME280_pressure;Samples;Min_cycle;Max_cycle;Signal;HPM_P1;HPM_P2
2024/01/20 00:01:35;;;;;;;12.33;5.70;;;2.10;99.90;;;;;;5033918;28;20261;-52
2024/01/20 00:04:01;;;;;;;17.20;5.40;;;2.10;99.90;;;;;;5033723;28;20418;-51
2024/01/20 00:06:27;;;;;;;10.33;5.10;;;2.20;99.90;;;;;;5033765;28;20194;-52
2024/01/20 00:08:52;;;;;;;19.42;5.63;;;2.20;99.90;;;;;;5032876;28;20433;-52
2024/01/20 00:11:18;;;;;;;13.07;5.73;;;2.20;99.90;;;;;;5033186;28;20263;-52
2024/01/20 00:13:44;;;;;;;12.47;5.60;;;2.30;99.90;;;;;;5033411;28;20190;-53
2024/01/20 00:16:09;;;;;;;14.77;5.33;;;2.30;99.90;;;;;;5033757;28;20336;-52
2024/01/20 00:18:35;;;;;;;15.23;5.00;;;2.30;99.90;;;;;;5033752;28;20627;-52
2024/01/20 00:21:00;;;;;;;13.27;5.33;;;2.30;99.90;;;;;;5033744;28;20353;-52
2024/01/20 00:23:26;;;;;;;10.17;5.07;;;2.30;99.90;;;;;;5033857;28;20189;-52
2024/01/20 00:25:51;;;;;;;8.57;5.00;;;2.30;99.90;;;;;;5033664;28;20180;-52
2024/01/20 00:28:18;;;;;;;11.80;5.23;;;2.30;99.90;;;;;;5033267;28;20183;-52
2024/01/20 00:30:43;;;;;;;9.60;5.00;;;2.30;99.90;;;;;;5033564;28;20194;-52
2024/01/20 00:33:09;;;;;;;9.87;5.53;;;2.40;99.90;;;;;;5033587;28;20781;-51
2024/01/20 00:35:36;;;;;;;6.87;5.20;;;2.30;99.90;;;;;;5033734;28;20190;-52
2024/01/20 00:38:02;;;;;;;13.17;5.30;;;2.30;99.90;;;;;;5033454;28;20222;-51
2024/01/20 00:40:28;;;;;;;11.23;5.43;;;2.20;99.90;;;;;;5033267;28;20926;-52
2024/01/20 00:42:54;;;;;;;7.90;4.77;;;2.20;99.90;;;;;;5033773;28;20414;-52
2024/01/20 00:45:19;;;;;;;11.80;5.53;;;2.20;99.90;;;;;;5033599;28;20181;-51
2024/01/20 00:47:45;;;;;;;8.13;4.97;;;2.20;99.90;;;;;;5033902;28;20194;-51
2024/01/20 00:50:11;;;;;;;10.20;5.23;;;2.20;99.90;;;;;;5031410;28;20188;-51
2024/01/20 00:52:37;;;;;;;11.83;5.00;;;2.20;99.90;;;;;;5031080;28;20191;-52
2024/01/20 00:55:03;;;;;;;11.90;5.40;;;2.20;99.90;;;;;;5031841;28;20902;-52
2024/01/20 00:57:28;;;;;;;8.67;5.87;;;2.20;99.90;;;;;;5033719;28;20187;-52
2024/01/20 00:59:55;;;;;;;11.87;5.53;;;2.20;99.90;;;;;;5034270;28;20186;-52
2024/01/20 01:02:21;;;;;;;14.33;5.63;;;2.10;99.90;;;;;;5034356;28;20222;-52
2024/01/20 01:04:46;;;;;;;11.90;5.57;;;2.10;99.90;;;;;;5033748;28;20407;-52
2024/01/20 01:07:12;;;;;;;20.00;6.00;;;2.10;99.90;;;;;;5034100;28;20182;-51
2024/01/20 01:09:37;;;;;;;13.47;6.03;;;2.20;99.90;;;;;;5033559;28;20321;-52
2024/01/20 01:12:03;;;;;;;12.20;6.00;;;2.20;99.90;;;;;;5034783;28;20191;-51
2024/01/20 01:14:29;;;;;;;11.87;6.23;;;2.20;99.90;;;;;;5034473;28;20651;-50
2024/01/20 01:16:55;;;;;;;12.73;5.53;;;2.20;99.90;;;;;;5036764;28;20181;-51
2024/01/20 01:19:20;;;;;;;10.53;6.77;;;2.20;99.90;;;;;;5037473;28;20177;-51
2024/01/20 01:21:46;;;;;;;14.10;6.60;;;2.20;99.90;;;;;;5036844;28;20642;-51
2024/01/20 01:24:11;;;;;;;18.30;7.07;;;2.10;99.90;;;;;;5036820;28;20179;-51
2024/01/20 01:26:37;;;;;;;15.53;6.70;;;2.20;99.90;;;;;;5036969;28;20241;-51
2024/01/20 01:29:02;;;;;;;14.27;6.87;;;2.20;99.90;;;;;;5033922;28;20182;-52
2024/01/20 01:31:28;;;;;;;11.80;6.60;;;2.20;99.90;;;;;;5033737;28;20176;-51
2024/01/20 01:33:53;;;;;;;17.50;6.73;;;2.20;99.90;;;;;;5033691;28;20634;-51
2024/01/20 01:36:19;;;;;;;14.63;8.00;;;2.20;99.90;;;;;;5032694;28;20184;-51
2024/01/20 01:38:44;;;;;;;12.23;7.53;;;2.20;99.90;;;;;;5033172;28;20266;-51
2024/01/20 01:41:10;;;;;;;12.13;8.13;;;2.20;99.90;;;;;;5034018;28;20315;-52
2024/01/20 01:43:36;;;;;;;19.83;7.80;;;2.20;99.90;;;;;;5032989;28;20185;-51
2024/01/20 01:46:02;;;;;;;14.70;7.87;;;2.20;99.90;;;;;;5032801;28;20179;-51
2024/01/20 01:48:28;;;;;;;26.53;9.27;;;2.20;99.90;;;;;;5033835;28;20190;-51
2024/01/20 01:50:55;;;;;;;18.70;8.70;;;2.20;99.90;;;;;;5032708;28;20953;-51
2024/01/20 01:53:21;;;;;;;18.67;9.10;;;2.20;99.90;;;;;;5033739;28;20418;-51
2024/01/20 01:55:47;;;;;;;15.70;9.23;;;2.10;99.90;;;;;;5033506;28;20571;-52
2024/01/20 01:58:13;;;;;;;17.83;9.60;;;2.20;99.90;;;;;;5033015;28;20631;-51
2024/01/20 02:00:39;;;;;;;23.60;10.10;;;2.20;99.90;;;;;;5032997;28;20833;-51
2024/01/20 02:03:05;;;;;;;20.13;9.90;;;2.10;99.90;;;;;;5032585;28;20442;-51
2024/01/20 02:05:31;;;;;;;18.67;10.40;;;2.10;99.90;;;;;;5033721;28;20450;-51
2024/01/20 02:07:58;;;;;;;16.83;10.40;;;2.10;99.90;;;;;;5032036;28;20198;-52
2024/01/20 02:10:23;;;;;;;18.70;11.27;;;2.10;99.90;;;;;;5032423;28;20319;-52
2024/01/20 02:12:50;;;;;;;19.20;10.53;;;2.10;99.90;;;;;;5032827;28;20912;-52
2024/01/20 02:15:16;;;;;;;22.80;11.37;;;2.00;99.90;;;;;;5033816;28;20240;-52
2024/01/20 02:17:52;;;;;;;20.47;11.43;;;2.00;99.90;;;;;;5032170;28;20457;-52
2024/01/20 02:20:18;;;;;;;18.17;11.57;;;2.00;99.90;;;;;;5032853;28;20410;-52
2024/01/20 02:22:43;;;;;;;21.97;12.20;;;1.90;99.90;;;;;;5032384;28;20501;-51
2024/01/20 02:25:09;;;;;;;25.90;12.10;;;1.90;99.90;;;;;;5033459;28;20233;-51
2024/01/20 02:27:34;;;;;;;21.70;12.03;;;1.90;99.90;;;;;;5031450;28;20191;-52
2024/01/20 02:30:00;;;;;;;22.90;13.67;;;1.90;99.90;;;;;;5032248;28;20184;-51
2024/01/20 02:32:26;;;;;;;21.27;12.70;;;1.90;99.90;;;;;;5032394;28;20187;-52
2024/01/20 02:34:51;;;;;;;23.33;12.30;;;1.90;99.90;;;;;;5032109;28;20184;-52
2024/01/20 02:37:17;;;;;;;21.70;13.43;;;1.90;99.90;;;;;;5032459;28;20183;-51
2024/01/20 02:39:43;;;;;;;24.40;13.20;;;1.80;99.90;;;;;;5032583;28;20185;-52
2024/01/20 02:42:10;;;;;;;30.00;14.90;;;1.90;99.90;;;;;;5031509;28;20671;-52
2024/01/20 02:44:37;;;;;;;25.70;13.53;;;1.90;99.90;;;;;;5033857;28;20933;-52
2024/01/20 02:47:02;;;;;;;26.00;14.30;;;1.90;99.90;;;;;;5032460;28;20424;-52
2024/01/20 02:49:28;;;;;;;22.37;12.87;;;1.80;99.90;;;;;;5031152;28;20422;-51
2024/01/20 02:51:54;;;;;;;27.30;13.90;;;1.80;99.90;;;;;;5032332;28;20210;-52
2024/01/20 02:54:20;;;;;;;24.07;15.17;;;1.80;99.90;;;;;;5030076;28;20950;-51
2024/01/20 02:56:45;;;;;;;22.33;13.80;;;1.80;99.90;;;;;;5032560;28;20183;-51
2024/01/20 02:59:11;;;;;;;21.27;13.07;;;1.80;99.90;;;;;;5032999;28;20215;-51
2024/01/20 03:01:36;;;;;;;35.13;13.40;;;1.80;99.90;;;;;;5033035;28;20207;-51
2024/01/20 03:04:02;;;;;;;27.80;14.60;;;1.80;99.90;;;;;;5030045;28;20198;-51
2024/01/20 03:06:28;;;;;;;24.27;14.00;;;1.80;99.90;;;;;;5031929;28;20211;-51
2024/01/20 03:08:53;;;;;;;23.37;14.13;;;1.80;99.90;;;;;;5031652;28;20235;-51
2024/01/20 03:11:19;;;;;;;29.53;13.80;;;1.80;99.90;;;;;;5032305;28;20196;-51
2024/01/20 03:13:44;;;;;;;23.50;14.60;;;1.80;99.90;;;;;;5032380;28;20639;-51
2024/01/20 03:16:10;;;;;;;30.80;14.60;;;1.80;99.90;;;;;;5031667;28;20218;-51
2024/01/20 03:18:37;;;;;;;25.13;13.80;;;1.80;99.90;;;;;;5030229;28;20230;-51
2024/01/20 03:21:03;;;;;;;25.60;15.50;;;1.80;99.90;;;;;;5032403;28;20216;-51
2024/01/20 03:23:29;;;;;;;34.20;14.80;;;1.80;99.90;;;;;;5031688;28;20456;-52
2024/01/20 03:25:55;;;;;;;22.30;14.33;;;1.90;99.90;;;;;;5030527;28;20447;-51
2024/01/20 03:28:21;;;;;;;30.00;14.80;;;1.80;99.90;;;;;;5032127;28;20180;-51
2024/01/20 03:30:47;;;;;;;25.77;15.60;;;1.80;99.90;;;;;;5031696;28;20180;-51
2024/01/20 03:33:12;;;;;;;26.83;16.73;;;1.80;99.90;;;;;;5030799;28;20417;-51
2024/01/20 03:35:38;;;;;;;21.50;14.67;;;1.80;99.90;;;;;;5031143;28;20568;-52
2024/01/20 03:38:04;;;;;;;28.43;14.50;;;1.80;99.90;;;;;;5030936;28;20245;-52
2024/01/20 03:40:30;;;;;;;28.83;16.10;;;1.80;99.90;;;;;;5030161;28;20175;-52
2024/01/20 03:42:55;;;;;;;24.80;16.27;;;1.80;99.90;;;;;;5031239;28;20470;-52
2024/01/20 03:45:21;;;;;;;26.07;15.60;;;1.80;1.00;;;;;;5031028;28;20266;-52
2024/01/20 03:47:47;;;;;;;29.10;15.90;;;1.80;1.00;;;;;;5031229;28;20194;-51
2024/01/20 03:50:12;;;;;;;30.57;16.23;;;1.80;1.00;;;;;;5032011;28;20179;-52
2024/01/20 03:52:38;;;;;;;27.30;15.30;;;1.80;1.00;;;;;;5030763;28;20229;-52
2024/01/20 03:55:04;;;;;;;29.37;17.33;;;1.80;99.90;;;;;;5031191;28;21357;-52
2024/01/20 03:57:29;;;;;;;28.83;17.17;;;1.80;99.90;;;;;;5030110;28;20202;-51
2024/01/20 03:59:55;;;;;;;38.27;16.77;;;1.80;99.90;;;;;;5031220;28;20442;-51
2024/01/20 04:02:20;;;;;;;29.57;17.37;;;1.80;99.90;;;;;;5030970;28;20208;-52
2024/01/20 04:04:46;;;;;;;28.00;17.00;;;1.70;99.90;;;;;;5029482;28;20191;-51
2024/01/20 04:07:12;;;;;;;34.77;17.10;;;1.70;1.00;;;;;;5031532;28;20190;-52
2024/01/20 04:09:37;;;;;;;32.97;17.90;;;1.70;1.00;;;;;;5031012;28;20686;-53
2024/01/20 04:12:03;;;;;;;31.67;18.30;;;1.70;1.00;;;;;;5028966;28;20183;-52
2024/01/20 04:14:29;;;;;;;31.97;18.47;;;1.70;1.00;;;;;;5031746;28;20233;-52
2024/01/20 04:16:55;;;;;;;30.77;19.37;;;1.70;1.00;;;;;;5030783;28;20415;-52
2024/01/20 04:19:20;;;;;;;28.53;18.03;;;1.70;1.00;;;;;;5028958;28;20183;-52
2024/01/20 04:21:46;;;;;;;35.13;18.73;;;1.70;1.00;;;;;;5030139;28;20223;-52
2024/01/20 04:24:11;;;;;;;28.63;18.33;;;1.70;1.00;;;;;;5031662;28;20187;-52
2024/01/20 04:26:37;;;;;;;29.77;18.87;;;1.70;1.00;;;;;;5030154;28;20195;-52
2024/01/20 04:29:02;;;;;;;30.03;19.43;;;1.70;1.00;;;;;;5030749;28;20278;-52
2024/01/20 04:31:29;;;;;;;31.57;19.90;;;1.70;1.00;;;;;;5029668;28;20175;-52
2024/01/20 04:33:55;;;;;;;30.53;19.90;;;1.80;1.00;;;;;;5030875;28;20218;-52
2024/01/20 04:36:21;;;;;;;29.00;19.83;;;1.80;1.00;;;;;;5030209;28;20468;-52
2024/01/20 04:38:47;;;;;;;40.77;20.80;;;1.80;1.00;;;;;;5030254;28;20513;-52
2024/01/20 04:41:12;;;;;;;34.10;21.40;;;1.80;1.00;;;;;;5031309;28;20217;-52
2024/01/20 04:43:38;;;;;;;32.87;20.50;;;1.80;1.00;;;;;;5029728;28;20183;-52
2024/01/20 04:46:04;;;;;;;36.87;22.57;;;1.80;1.00;;;;;;5030807;28;21048;-53
2024/01/20 04:48:31;;;;;;;32.00;21.73;;;1.80;1.00;;;;;;5029048;28;20183;-52
2024/01/20 04:50:57;;;;;;;38.23;21.93;;;1.80;1.00;;;;;;5030952;28;20202;-52
2024/01/20 04:53:22;;;;;;;37.63;23.43;;;1.80;1.00;;;;;;5030450;28;20506;-51
2024/01/20 04:55:48;;;;;;;33.27;23.10;;;1.80;1.00;;;;;;5029388;28;20418;-52
2024/01/20 04:58:14;;;;;;;36.47;24.33;;;1.80;1.00;;;;;;5030082;28;20179;-52
2024/01/20 05:00:39;;;;;;;42.90;24.20;;;1.80;1.00;;;;;;5030637;28;20187;-52
2024/01/20 05:03:05;;;;;;;39.90;22.60;;;1.80;1.00;;;;;;5036074;28;20191;-52
2024/01/20 05:05:31;;;;;;;39.10;22.63;;;1.80;1.00;;;;;;5050067;28;20194;-52
2024/01/20 05:07:56;;;;;;;36.70;23.17;;;1.80;1.00;;;;;;5049119;28;20201;-52
2024/01/20 05:10:22;;;;;;;37.93;24.03;;;1.70;1.00;;;;;;5049398;28;20242;-52
2024/01/20 05:12:47;;;;;;;47.80;25.10;;;1.70;1.00;;;;;;5051065;28;20182;-52
2024/01/20 05:15:13;;;;;;;41.00;22.43;;;1.60;1.00;;;;;;5050721;28;20183;-52
2024/01/20 05:17:39;;;;;;;42.50;26.60;;;1.60;1.00;;;;;;5048465;28;20183;-52
2024/01/20 05:20:05;;;;;;;41.90;24.00;;;1.60;1.00;;;;;;5049537;28;20187;-51
2024/01/20 05:22:31;;;;;;;45.30;24.67;;;1.50;1.00;;;;;;5050168;28;20487;-51
2024/01/20 05:24:57;;;;;;;36.70;23.53;;;1.50;1.00;;;;;;5049550;28;20421;-52
2024/01/20 05:27:23;;;;;;;48.40;24.83;;;1.50;1.00;;;;;;5049551;28;20764;-51
2024/01/20 05:29:48;;;;;;;42.77;24.47;;;1.50;1.00;;;;;;5049874;28;20258;-52
2024/01/20 05:32:15;;;;;;;42.17;24.33;;;1.40;1.00;;;;;;5050267;28;20191;-52
2024/01/20 05:34:41;;;;;;;40.80;26.20;;;1.40;1.00;;;;;;5050207;28;20171;-52
2024/01/20 05:37:06;;;;;;;40.87;25.30;;;1.40;1.00;;;;;;5048977;28;20718;-51
2024/01/20 05:39:32;;;;;;;44.90;25.13;;;1.30;1.00;;;;;;5049935;28;20264;-51
2024/01/20 05:41:58;;;;;;;40.00;24.67;;;1.40;1.00;;;;;;5051353;28;20223;-52
2024/01/20 05:44:23;;;;;;;47.50;26.83;;;1.40;1.00;;;;;;5053552;28;20201;-51
2024/01/20 05:46:49;;;;;;;37.37;24.70;;;1.40;1.00;;;;;;5052874;28;20209;-51
2024/01/20 05:49:14;;;;;;;35.47;24.40;;;1.40;1.00;;;;;;5053454;28;20179;-52
2024/01/20 05:51:40;;;;;;;37.47;24.80;;;1.40;1.00;;;;;;5053013;28;20187;-52
2024/01/20 05:54:06;;;;;;;36.60;23.57;;;1.30;1.00;;;;;;5054671;28;20322;-52
2024/01/20 05:56:32;;;;;;;40.07;23.63;;;1.30;1.00;;;;;;5052500;28;20190;-52
2024/01/20 05:58:57;;;;;;;36.17;23.43;;;1.30;1.00;;;;;;5054245;28;20413;-53
2024/01/20 06:01:23;;;;;;;45.40;25.57;;;1.30;11.40;;;;;;5051678;28;20245;-51
2024/01/20 06:03:49;;;;;;;35.10;24.47;;;1.20;1.00;;;;;;5052489;28;20214;-52
2024/01/20 06:06:14;;;;;;;34.37;23.23;;;1.10;99.90;;;;;;5053867;28;20194;-52
2024/01/20 06:08:40;;;;;;;44.37;23.97;;;1.20;99.90;;;;;;5053331;28;20319;-51
2024/01/20 06:11:05;;;;;;;41.57;25.80;;;1.20;91.80;;;;;;5052293;28;20171;-52
2024/01/20 06:13:31;;;;;;;44.23;24.70;;;1.20;99.90;;;;;;5051670;28;20175;-52
2024/01/20 06:15:57;;;;;;;34.50;23.93;;;1.20;95.40;;;;;;5053542;28;20270;-52
2024/01/20 06:18:22;;;;;;;55.57;25.13;;;1.20;99.90;;;;;;5053953;28;20178;-53
2024/01/20 06:20:48;;;;;;;36.57;24.17;;;1.20;74.20;;;;;;5052615;28;20194;-52
2024/01/20 06:23:13;;;;;;;38.63;24.00;;;1.20;59.40;;;;;;5052885;28;20182;-53
2024/01/20 06:25:39;;;;;;;40.03;23.37;;;1.20;43.90;;;;;;5051650;28;20249;-52
2024/01/20 06:28:05;;;;;;;37.00;23.17;;;1.20;6.60;;;;;;5052704;28;20183;-53
2024/01/20 06:30:31;;;;;;;44.03;23.53;;;1.20;1.00;;;;;;5053024;28;20266;-52
2024/01/20 06:32:58;;;;;;;43.50;25.10;;;1.20;1.00;;;;;;5053437;28;20418;-51
2024/01/20 06:35:24;;;;;;;37.47;22.90;;;1.20;1.00;;;;;;5051560;28;20862;-52
2024/01/20 06:37:50;;;;;;;45.07;25.40;;;1.10;1.00;;;;;;5051467;28;20445;-51
2024/01/20 06:40:16;;;;;;;38.63;23.73;;;1.20;14.20;;;;;;5051984;28;20458;-51
2024/01/20 06:42:42;;;;;;;39.63;25.10;;;1.20;1.00;;;;;;5054116;28;20289;-51
2024/01/20 06:45:08;;;;;;;43.63;23.73;;;1.20;1.00;;;;;;5051857;28;20984;-51
2024/01/20 06:47:33;;;;;;;44.23;25.33;;;1.10;1.00;;;;;;5051054;28;20887;-51
2024/01/20 06:49:59;;;;;;;40.77;24.23;;;1.10;1.00;;;;;;5052319;28;20179;-51
2024/01/20 06:52:25;;;;;;;38.30;24.10;;;1.10;1.00;;;;;;5052213;28;20206;-51
2024/01/20 06:54:50;;;;;;;37.50;24.10;;;1.00;1.00;;;;;;5051578;28;20187;-51
2024/01/20 06:57:16;;;;;;;37.03;24.00;;;1.00;16.70;;;;;;5053427;28;20228;-51
2024/01/20 06:59:42;;;;;;;39.40;23.97;;;1.00;1.00;;;;;;5050676;28;20197;-51
2024/01/20 07:02:07;;;;;;;40.57;23.20;;;1.00;26.90;;;;;;5052807;28;20210;-51
2024/01/20 07:04:33;;;;;;;40.50;23.63;;;1.00;1.00;;;;;;5052031;28;20414;-51
2024/01/20 07:06:58;;;;;;;32.97;21.70;;;1.10;1.00;;;;;;5051192;28;20241;-51
2024/01/20 07:09:25;;;;;;;38.60;23.13;;;1.20;1.00;;;;;;5051874;28;20239;-50
2024/01/20 07:11:53;;;;;;;42.27;23.60;;;1.20;1.00;;;;;;5051916;28;20623;-51
2024/01/20 07:14:19;;;;;;;41.87;24.13;;;1.20;1.00;;;;;;5051175;28;20441;-51
2024/01/20 07:16:45;;;;;;;48.33;24.40;;;1.10;1.00;;;;;;5050885;28;20413;-51
2024/01/20 07:19:10;;;;;;;44.90;25.57;;;1.00;1.00;;;;;;5052144;28;20871;-51
2024/01/20 07:21:36;;;;;;;37.83;23.03;;;1.10;1.00;;;;;;5051217;28;20356;-52
2024/01/20 07:24:04;;;;;;;44.83;27.30;;;1.10;1.00;;;;;;5051939;28;20201;-52
2024/01/20 07:26:30;;;;;;;42.03;23.10;;;1.10;1.00;;;;;;5050696;28;20563;-52
2024/01/20 07:28:55;;;;;;;43.87;22.83;;;1.10;1.00;;;;;;5051503;28;20424;-52
2024/01/20 07:31:22;;;;;;;40.70;24.23;;;1.00;1.00;;;;;;5051019;28;20190;-52
2024/01/20 07:33:48;;;;;;;43.40;23.30;;;1.00;1.00;;;;;;5052002;28;20209;-52
2024/01/20 07:36:14;;;;;;;45.83;25.80;;;1.00;1.00;;;;;;5051867;28;21124;-51
2024/01/20 07:38:39;;;;;;;45.07;24.80;;;0.90;1.00;;;;;;5051178;28;20175;-52
2024/01/20 07:41:06;;;;;;;39.63;24.57;;;0.90;1.00;;;;;;5050306;28;20217;-52
2024/01/20 07:43:32;;;;;;;47.23;26.27;;;0.90;1.00;;;;;;5051829;28;20257;-51
2024/01/20 07:45:57;;;;;;;46.63;24.20;;;0.90;1.00;;;;;;5051660;28;20520;-52
2024/01/20 07:48:23;;;;;;;40.47;23.10;;;0.90;1.00;;;;;;5050681;28;20186;-51
2024/01/20 07:50:49;;;;;;;41.90;23.17;;;1.00;1.00;;;;;;5050351;28;20924;-51
2024/01/20 07:53:14;;;;;;;46.70;25.00;;;1.00;1.00;;;;;;5050916;28;20483;-51
2024/01/20 07:55:40;;;;;;;47.73;24.47;;;1.00;1.00;;;;;;5051689;28;20183;-51
2024/01/20 07:58:06;;;;;;;51.10;23.90;;;1.00;1.00;;;;;;5050663;28;20516;-52
2024/01/20 08:00:31;;;;;;;49.10;25.90;;;1.00;1.00;;;;;;5050620;28;20174;-51
2024/01/20 08:02:57;;;;;;;47.40;23.73;;;1.00;1.00;;;;;;5050367;28;20218;-51
2024/01/20 08:05:22;;;;;;;44.63;24.20;;;1.00;1.00;;;;;;5051472;28;20191;-52
2024/01/20 08:07:48;;;;;;;49.13;24.97;;;1.00;1.00;;;;;;5050820;28;20240;-52
2024/01/20 08:10:14;;;;;;;45.53;22.80;;;1.00;1.00;;;;;;5050591;28;20244;-52
2024/01/20 08:12:40;;;;;;;42.13;22.30;;;1.00;1.00;;;;;;5049493;28;20221;-52
2024/01/20 08:15:07;;;;;;;52.00;23.23;;;1.00;1.00;;;;;;5051475;28;20187;-51
2024/01/20 08:17:32;;;;;;;44.27;22.67;;;1.10;99.90;;;;;;5050985;28;20514;-52
2024/01/20 08:19:58;;;;;;;48.03;23.93;;;1.10;99.90;;;;;;5050322;28;20500;-52
2024/01/20 08:22:23;;;;;;;47.33;23.50;;;1.10;99.90;;;;;;5049778;28;20256;-52
2024/01/20 08:24:49;;;;;;;42.03;21.53;;;1.10;99.90;;;;;;5050668;28;20183;-53
2024/01/20 08:27:14;;;;;;;47.27;22.47;;;1.20;99.90;;;;;;5050057;28;20194;-52
2024/01/20 08:29:40;;;;;;;48.23;22.50;;;1.30;99.90;;;;;;5051557;28;20189;-52
2024/01/20 08:32:06;;;;;;;48.17;20.43;;;1.30;99.90;;;;;;5050731;28;20191;-52
2024/01/20 08:34:32;;;;;;;49.43;22.03;;;1.40;99.90;;;;;;5049197;28;20413;-52
2024/01/20 08:36:57;;;;;;;48.17;21.77;;;1.50;99.90;;;;;;5051227;28;20239;-52
2024/01/20 08:39:23;;;;;;;47.33;21.93;;;1.60;99.90;;;;;;5050207;28;20189;-52
2024/01/20 08:41:48;;;;;;;39.40;19.73;;;1.70;99.90;;;;;;5049284;28;20344;-52
2024/01/20 08:44:14;;;;;;;41.63;20.30;;;1.80;99.90;;;;;;5050671;28;20193;-52
2024/01/20 08:46:40;;;;;;;42.13;21.43;;;1.70;99.90;;;;;;5050037;28;20183;-52
2024/01/20 08:49:06;;;;;;;38.40;19.37;;;1.70;99.90;;;;;;5050570;28;20547;-52
2024/01/20 08:51:31;;;;;;;42.20;20.90;;;1.70;99.90;;;;;;5050228;28;20549;-52
2024/01/20 08:53:57;;;;;;;38.80;19.13;;;1.70;99.90;;;;;;5049434;28;20244;-52
2024/01/20 08:56:22;;;;;;;43.30;20.13;;;1.70;99.90;;;;;;5050728;28;20547;-52
2024/01/20 08:58:48;;;;;;;44.73;21.53;;;1.70;99.90;;;;;;5049895;28;20194;-52
2024/01/20 09:01:15;;;;;;;47.70;20.80;;;1.70;99.90;;;;;;5049594;28;20465;-52
2024/01/20 09:03:40;;;;;;;48.83;20.90;;;1.70;99.90;;;;;;5050296;28;20222;-52
2024/01/20 09:06:06;;;;;;;42.67;20.40;;;1.80;99.90;;;;;;5050000;28;20449;-52
2024/01/20 09:08:31;;;;;;;43.43;20.13;;;1.90;99.90;;;;;;5048856;28;20288;-52
2024/01/20 09:10:58;;;;;;;47.63;19.23;;;2.10;99.90;;;;;;5050365;28;20186;-52
2024/01/20 09:13:23;;;;;;;39.70;19.67;;;2.20;99.90;;;;;;5050058;28;20191;-52
2024/01/20 09:15:49;;;;;;;43.60;20.13;;;2.20;99.90;;;;;;5049741;28;20974;-51
2024/01/20 09:18:17;;;;;;;56.20;19.23;;;2.30;99.90;;;;;;5054496;28;20189;-52
2024/01/20 09:20:43;;;;;;;35.47;18.73;;;2.40;99.90;;;;;;5053714;28;20182;-52
2024/01/20 09:23:08;;;;;;;38.03;18.70;;;2.60;99.90;;;;;;5053681;28;20482;-52
2024/01/20 09:25:34;;;;;;;40.53;17.67;;;2.70;92.10;;;;;;5054688;28;20512;-52
2024/01/20 09:28:04;;;;;;;37.40;18.10;;;2.70;71.30;;;;;;5053813;28;20178;-52
2024/01/20 09:30:29;;;;;;;40.93;18.63;;;2.80;57.30;;;;;;5053250;28;20213;-51
2024/01/20 09:32:55;;;;;;;41.60;17.73;;;2.80;49.30;;;;;;5053350;28;20425;-52
2024/01/20 09:35:20;;;;;;;40.33;18.70;;;2.80;44.00;;;;;;5054099;28;20630;-52
2024/01/20 09:37:46;;;;;;;38.20;17.47;;;2.80;39.20;;;;;;5052773;28;20183;-51
2024/01/20 09:40:12;;;;;;;42.57;18.07;;;2.70;37.30;;;;;;5053456;28;20208;-52
2024/01/20 09:42:38;;;;;;;53.53;19.43;;;2.70;34.60;;;;;;5053363;28;20217;-51
2024/01/20 09:45:04;;;;;;;37.73;17.40;;;2.70;37.40;;;;;;5052394;28;20237;-52
2024/01/20 09:47:29;;;;;;;37.63;17.47;;;2.80;30.20;;;;;;5054178;28;20190;-52
2024/01/20 09:49:55;;;;;;;43.47;19.13;;;2.80;24.50;;;;;;5053187;28;20416;-52
2024/01/20 09:52:28;;;;;;;35.90;17.87;;;2.80;24.70;;;;;;5052750;28;20188;-51
2024/01/20 09:55:11;;;;;;;43.20;19.57;;;2.90;21.50;;;;;;5053414;28;20678;-52
2024/01/20 09:57:40;;;;;;;40.67;18.40;;;2.80;18.70;;;;;;5054037;28;20436;-52
2024/01/20 10:00:06;;;;;;;37.17;18.03;;;3.00;18.90;;;;;;5052879;28;20425;-52
2024/01/20 10:02:33;;;;;;;41.00;17.77;;;3.00;11.40;;;;;;5053463;28;20471;-51
2024/01/20 10:05:03;;;;;;;35.40;17.50;;;3.00;7.10;;;;;;5053816;28;20417;-52
2024/01/20 10:07:29;;;;;;;42.63;18.47;;;2.90;5.50;;;;;;5050970;28;20775;-51
2024/01/20 10:09:55;;;;;;;47.13;19.97;;;2.90;6.80;;;;;;5053328;28;20484;-51
2024/01/20 10:12:23;;;;;;;39.63;19.57;;;2.90;6.80;;;;;;5053570;28;20425;-51
2024/01/20 10:14:49;;;;;;;35.60;16.90;;;2.90;7.40;;;;;;5051825;28;20437;-51
2024/01/20 10:17:15;;;;;;;38.63;17.83;;;3.10;6.20;;;;;;5053904;28;20824;-51
2024/01/20 10:19:40;;;;;;;36.07;17.07;;;3.30;1.00;;;;;;5053002;28;20467;-52
2024/01/20 10:22:09;;;;;;;48.00;18.10;;;3.50;1.00;;;;;;5051289;28;20248;-52
2024/01/20 10:24:34;;;;;;;36.13;16.67;;;3.50;1.00;;;;;;5053785;28;20193;-52
2024/01/20 10:27:02;;;;;;;36.20;17.07;;;3.50;1.00;;;;;;5052501;28;20414;-51
2024/01/20 10:29:28;;;;;;;35.57;16.57;;;3.50;1.00;;;;;;5053872;28;20185;-52
2024/01/20 10:31:54;;;;;;;38.70;17.07;;;3.50;1.00;;;;;;5052937;28;20432;-52
2024/01/20 10:34:20;;;;;;;37.00;16.50;;;3.60;1.00;;;;;;5051251;28;20416;-50
2024/01/20 10:36:49;;;;;;;34.17;15.73;;;3.60;1.00;;;;;;5052097;28;20267;-51
2024/01/20 10:39:19;;;;;;;38.80;16.37;;;3.60;1.00;;;;;;5053369;28;20240;-51
2024/01/20 10:41:48;;;;;;;37.00;16.97;;;3.70;1.00;;;;;;5052841;28;20465;-52
2024/01/20 10:44:20;;;;;;;38.17;16.20;;;3.80;1.00;;;;;;5051878;28;20889;-52
2024/01/20 10:46:51;;;;;;;35.87;15.40;;;3.80;1.00;;;;;;5052742;28;20417;-53
2024/01/20 10:49:19;;;;;;;31.83;15.50;;;3.80;1.00;;;;;;5052130;28;20499;-52
2024/01/20 10:51:46;;;;;;;35.43;15.77;;;3.80;1.00;;;;;;5053973;28;20482;-52
2024/01/20 10:54:13;;;;;;;33.03;15.67;;;3.90;1.00;;;;;;5055453;28;20409;-52
2024/01/20 10:56:39;;;;;;;31.83;15.20;;;4.00;1.00;;;;;;5055575;28;20448;-52
2024/01/20 10:59:08;;;;;;;32.73;15.90;;;4.10;1.00;;;;;;5055491;28;20445;-52
2024/01/20 11:01:35;;;;;;;27.33;13.97;;;4.20;1.00;;;;;;5055516;28;20689;-52
2024/01/20 11:04:01;;;;;;;34.50;14.93;;;4.30;1.00;;;;;;5054976;28;20909;-52
2024/01/20 11:06:27;;;;;;;38.13;15.63;;;4.30;1.00;;;;;;5055074;28;20417;-52
2024/01/20 11:08:53;;;;;;;35.17;16.80;;;4.40;1.00;;;;;;5054942;28;20480;-53
2024/01/20 11:11:19;;;;;;;29.70;14.03;;;4.70;1.00;;;;;;5055247;28;20232;-52
2024/01/20 11:13:48;;;;;;;32.30;13.87;;;5.60;1.00;;;;;;5055078;28;20936;-52
2024/01/20 11:16:22;;;;;;;34.87;14.80;;;6.40;1.00;;;;;;5055210;28;20417;-52
2024/01/20 11:18:47;;;;;;;29.30;13.97;;;6.90;1.00;;;;;;5054959;28;20452;-52
2024/01/20 11:21:17;;;;;;;31.83;14.00;;;6.90;1.00;;;;;;5054418;28;20488;-52
2024/01/20 11:23:59;;;;;;;33.83;15.83;;;6.80;1.00;;;;;;5054790;28;20274;-52
2024/01/20 11:26:33;;;;;;;28.50;14.33;;;6.60;1.00;;;;;;5054742;28;20407;-52
2024/01/20 11:29:00;;;;;;;30.33;14.13;;;6.50;1.00;;;;;;5054708;28;20445;-52
2024/01/20 11:31:26;;;;;;;37.60;18.50;;;6.60;1.00;;;;;;5054835;28;20781;-51
2024/01/20 11:33:52;;;;;;;30.23;14.47;;;6.80;1.00;;;;;;5054516;28;20784;-52
2024/01/20 11:36:19;;;;;;;26.87;13.90;;;6.70;1.00;;;;;;5054586;28;20413;-52
2024/01/20 11:38:45;;;;;;;31.50;14.97;;;6.40;1.00;;;;;;5054133;28;20420;-52
2024/01/20 11:41:11;;;;;;;27.60;14.67;;;6.00;1.00;;;;;;5054465;28;20792;-52
2024/01/20 11:43:43;;;;;;;27.00;13.67;;;6.00;1.00;;;;;;5054656;28;20413;-53
2024/01/20 11:46:08;;;;;;;29.97;13.43;;;6.70;1.00;;;;;;5054230;28;20183;-53
2024/01/20 11:48:34;;;;;;;27.93;13.27;;;7.50;1.00;;;;;;5054206;28;20430;-52
2024/01/20 11:51:01;;;;;;;31.20;13.67;;;8.00;1.00;;;;;;5054107;28;20189;-52
2024/01/20 11:53:27;;;;;;;25.57;12.97;;;8.30;1.00;;;;;;5054020;28;20186;-52
2024/01/20 11:55:58;;;;;;;25.63;13.07;;;8.20;1.00;;;;;;5054060;28;20807;-51
2024/01/20 11:58:24;;;;;;;25.30;12.23;;;8.30;1.00;;;;;;5054157;28;20266;-52
2024/01/20 12:00:51;;;;;;;29.80;13.40;;;8.40;1.00;;;;;;5054070;28;20495;-52
2024/01/20 12:03:20;;;;;;;24.97;14.00;;;7.90;1.00;;;;;;5053643;28;20264;-52
2024/01/20 12:05:46;;;;;;;29.10;13.63;;;7.30;1.00;;;;;;5052392;28;20475;-52
2024/01/20 12:08:13;;;;;;;31.43;14.20;;;6.90;1.00;;;;;;5053673;28;20421;-53
2024/01/20 12:10:40;;;;;;;23.83;13.07;;;6.60;1.00;;;;;;5053621;28;20259;-53
2024/01/20 12:13:06;;;;;;;26.77;13.50;;;6.30;1.00;;;;;;5053541;28;20480;-52
2024/01/20 12:15:37;;;;;;;29.60;14.67;;;5.90;1.00;;;;;;5023655;28;20486;-53
2024/01/20 12:18:03;;;;;;;36.07;14.60;;;5.50;1.00;;;;;;5047016;28;20480;-52
2024/01/20 12:20:29;;;;;;;28.70;14.10;;;5.20;1.00;;;;;;5053455;28;20417;-53
2024/01/20 12:22:59;;;;;;;29.60;13.30;;;5.00;1.00;;;;;;5039948;28;20512;-52
2024/01/20 12:25:29;;;;;;;28.97;12.83;;;4.80;1.00;;;;;;5015900;28;20207;-52
2024/01/20 12:27:55;;;;;;;29.23;13.43;;;4.70;1.00;;;;;;5029680;28;20994;-52
2024/01/20 12:30:21;;;;;;;30.77;14.07;;;4.70;1.00;;;;;;5019419;28;20429;-52
2024/01/20 12:32:46;;;;;;;31.30;14.50;;;4.80;1.00;;;;;;5026232;28;20242;-52
2024/01/20 12:35:12;;;;;;;29.07;12.97;;;5.20;1.00;;;;;;5028789;28;20191;-52
2024/01/20 12:37:38;;;;;;;29.03;13.87;;;5.50;1.00;;;;;;5033574;28;20195;-52